sensor_id;sensor_type;location;lat;lon;timestamp;pressure;altitude;pressure_sealevel;temperature;humidity
68654;BME280;55636;51.108;13.622;2023-02-11T00:00:57;102001.66;;;1.49;54.55
68654;BME280;55636;51.108;13.622;2023-02-11T00:01:59;101999.13;;;1.48;54.50
68654;BME280;55636;51.108;13.622;2023-02-11T00:03:02;101987.22;;;1.49;54.53
68654;BME280;55636;51.108;13.622;2023-02-11T00:04:05;101990.78;;;1.49;54.54
68654;BME280;55636;51.108;13.622;2023-02-11T00:05:07;101984.31;;;1.50;54.66
68654;BME280;55636;51.108;13.622;2023-02-11T00:06:10;101988.94;;;1.50;54.58
68654;BME280;55636;51.108;13.622;2023-02-11T00:07:13;101985.31;;;1.49;54.71
68654;BME280;55636;51.108;13.622;2023-02-11T00:08:18;101979.03;;;1.49;54.73
68654;BME280;55636;51.108;13.622;2023-02-11T00:09:20;101983.66;;;1.48;54.68
68654;BME280;55636;51.108;13.622;2023-02-11T00:10:22;101991.66;;;1.50;54.73
68654;BME280;55636;51.108;13.622;2023-02-11T00:11:26;101981.59;;;1.50;54.77
68654;BME280;55636;51.108;13.622;2023-02-11T00:12:35;101983.31;;;1.51;54.72
68654;BME280;55636;51.108;13.622;2023-02-11T00:13:38;101983.31;;;1.51;54.76
68654;BME280;55636;51.108;13.622;2023-02-11T00:14:40;101986.03;;;1.51;54.78
68654;BME280;55636;51.108;13.622;2023-02-11T00:15:44;101977.88;;;1.51;54.84
68654;BME280;55636;51.108;13.622;2023-02-11T00:16:47;101983.16;;;1.53;54.87
68654;BME280;55636;51.108;13.622;2023-02-11T00:17:49;101987.75;;;1.52;54.89
68654;BME280;55636;51.108;13.622;2023-02-11T00:18:52;101990.31;;;1.54;54.98
68654;BME280;55636;51.108;13.622;2023-02-11T00:19:55;101989.47;;;1.53;54.89
68654;BME280;55636;51.108;13.622;2023-02-11T00:20:57;101982.97;;;1.54;54.79
68654;BME280;55636;51.108;13.622;2023-02-11T00:21:59;101972.97;;;1.55;54.83
68654;BME280;55636;51.108;13.622;2023-02-11T00:23:02;101973.13;;;1.53;55.09
68654;BME280;55636;51.108;13.622;2023-02-11T00:24:04;101963.06;;;1.54;55.07
68654;BME280;55636;51.108;13.622;2023-02-11T00:25:08;101964.78;;;1.55;55.03
68654;BME280;55636;51.108;13.622;2023-02-11T00:26:16;101956.63;;;1.55;55.10
68654;BME280;55636;51.108;13.622;2023-02-11T00:27:20;101946.56;;;1.55;55.12
68654;BME280;55636;51.108;13.622;2023-02-11T00:28:26;101950.16;;;1.56;55.21
68654;BME280;55636;51.108;13.622;2023-02-11T00:29:28;101954.56;;;1.57;55.02
68654;BME280;55636;51.108;13.622;2023-02-11T00:30:31;101954.44;;;1.58;55.21
68654;BME280;55636;51.108;13.622;2023-02-11T00:31:34;101944.53;;;1.57;55.27
68654;BME280;55636;51.108;13.622;2023-02-11T00:32:39;101961.72;;;1.58;55.23
68654;BME280;55636;51.108;13.622;2023-02-11T00:33:44;101949.97;;;1.57;55.24
68654;BME280;55636;51.108;13.622;2023-02-11T00:34:46;101950.53;;;1.61;55.15
68654;BME280;55636;51.108;13.622;2023-02-11T00:35:49;101945.06;;;1.61;55.13
68654;BME280;55636;51.108;13.622;2023-02-11T00:36:52;101941.31;;;1.62;55.14
68654;BME280;55636;51.108;13.622;2023-02-11T00:37:56;101944.91;;;1.63;55.19
68654;BME280;55636;51.108;13.622;2023-02-11T00:38:58;101949.47;;;1.62;55.28
68654;BME280;55636;51.108;13.622;2023-02-11T00:40:03;101952.03;;;1.64;55.27
68654;BME280;55636;51.108;13.622;2023-02-11T00:41:08;101947.63;;;1.63;55.32
68654;BME280;55636;51.108;13.622;2023-02-11T00:42:13;101942.19;;;1.63;55.24
68654;BME280;55636;51.108;13.622;2023-02-11T00:43:15;101943.88;;;1.64;55.18
68654;BME280;55636;51.108;13.622;2023-02-11T00:44:17;101932.97;;;1.64;55.41
68654;BME280;55636;51.108;13.622;2023-02-11T00:45:21;101939.28;;;1.64;55.36
68654;BME280;55636;51.108;13.622;2023-02-11T00:46:25;101934.69;;;1.65;55.28
68654;BME280;55636;51.108;13.622;2023-02-11T00:47:28;101928.22;;;1.66;55.22
68654;BME280;55636;51.108;13.622;2023-02-11T00:48:30;101917.31;;;1.66;55.23
68654;BME280;55636;51.108;13.622;2023-02-11T00:49:34;101929.06;;;1.66;55.31
68654;BME280;55636;51.108;13.622;2023-02-11T00:50:37;101910.69;;;1.68;55.36
68654;BME280;55636;51.108;13.622;2023-02-11T00:51:40;101919.03;;;1.67;55.18
68654;BME280;55636;51.108;13.622;2023-02-11T00:52:42;101909.84;;;1.68;55.19
68654;BME280;55636;51.108;13.622;2023-02-11T00:53:45;101909.69;;;1.69;55.17
68654;BME280;55636;51.108;13.622;2023-02-11T00:54:47;101906.09;;;1.69;55.20
68654;BME280;55636;51.108;13.622;2023-02-11T00:55:51;101905.06;;;1.70;55.18
68654;BME280;55636;51.108;13.622;2023-02-11T00:56:59;101904.06;;;1.71;55.18
68654;BME280;55636;51.108;13.622;2023-02-11T00:58:04;101896.72;;;1.71;55.13
68654;BME280;55636;51.108;13.622;2023-02-11T00:59:06;101899.47;;;1.71;55.11
68654;BME280;55636;51.108;13.622;2023-02-11T01:00:11;101887.53;;;1.72;55.15
68654;BME280;55636;51.108;13.622;2023-02-11T01:01:14;101884.81;;;1.72;55.24
68654;BME280;55636;51.108;13.622;2023-02-11T01:02:17;101884.66;;;1.74;55.08
68654;BME280;55636;51.108;13.622;2023-02-11T01:03:19;101884.66;;;1.74;55.24
68654;BME280;55636;51.108;13.622;2023-02-11T01:04:24;101884.66;;;1.74;55.21
68654;BME280;55636;51.108;13.622;2023-02-11T01:05:28;101881.91;;;1.74;55.24
68654;BME280;55636;51.108;13.622;2023-02-11T01:06:31;101885.53;;;1.74;55.19
68654;BME280;55636;51.108;13.622;2023-02-11T01:07:34;101886.38;;;1.75;55.23
68654;BME280;55636;51.108;13.622;2023-02-11T01:08:37;101890.81;;;1.76;55.21
68654;BME280;55636;51.108;13.622;2023-02-11T01:09:42;101889.78;;;1.77;55.10
68654;BME280;55636;51.108;13.622;2023-02-11T01:10:44;101888.78;;;1.78;55.17
68654;BME280;55636;51.108;13.622;2023-02-11T01:11:47;101895.25;;;1.77;55.09
68654;BME280;55636;51.108;13.622;2023-02-11T01:12:51;101894.91;;;1.80;55.11
68654;BME280;55636;51.108;13.622;2023-02-11T01:13:53;101891.34;;;1.80;55.13
68654;BME280;55636;51.108;13.622;2023-02-11T01:14:57;101899.50;;;1.80;55.22
68654;BME280;55636;51.108;13.622;2023-02-11T01:15:59;101893.88;;;1.81;55.25
68654;BME280;55636;51.108;13.622;2023-02-11T01:17:04;101901.06;;;1.82;55.23
68654;BME280;55636;51.108;13.622;2023-02-11T01:18:06;101902.91;;;1.82;55.34
68654;BME280;55636;51.108;13.622;2023-02-11T01:19:08;101905.50;;;1.83;55.15
68654;BME280;55636;51.108;13.622;2023-02-11T01:20:17;101901.88;;;1.83;55.27
68654;BME280;55636;51.108;13.622;2023-02-11T01:21:19;101905.31;;;1.85;55.17
68654;BME280;55636;51.108;13.622;2023-02-11T01:22:22;101910.78;;;1.85;55.15
68654;BME280;55636;51.108;13.622;2023-02-11T01:23:24;101910.59;;;1.86;55.12
68654;BME280;55636;51.108;13.622;2023-02-11T01:24:26;101913.16;;;1.88;55.27
68654;BME280;55636;51.108;13.622;2023-02-11T01:25:29;101909.59;;;1.87;55.34
68654;BME280;55636;51.108;13.622;2023-02-11T01:26:32;101906.00;;;1.87;55.25
68654;BME280;55636;51.108;13.622;2023-02-11T01:27:34;101908.53;;;1.88;55.21
68654;BME280;55636;51.108;13.622;2023-02-11T01:28:37;101906.88;;;1.87;55.35
68654;BME280;55636;51.108;13.622;2023-02-11T01:29:40;101901.25;;;1.89;55.31
68654;BME280;55636;51.108;13.622;2023-02-11T01:30:42;101906.53;;;1.90;55.24
68654;BME280;55636;51.108;13.622;2023-02-11T01:31:45;101901.06;;;1.90;55.35
68654;BME280;55636;51.108;13.622;2023-02-11T01:32:47;101909.94;;;1.92;55.39
68654;BME280;55636;51.108;13.622;2023-02-11T01:33:50;101907.22;;;1.92;55.32
68654;BME280;55636;51.108;13.622;2023-02-11T01:34:52;101896.31;;;1.92;55.30
68654;BME280;55636;51.108;13.622;2023-02-11T01:35:54;101898.88;;;1.94;55.34
68654;BME280;55636;51.108;13.622;2023-02-11T01:36:58;101894.09;;;1.96;55.36
68654;BME280;55636;51.108;13.622;2023-02-11T01:38:02;101893.06;;;1.97;55.27
68654;BME280;55636;51.108;13.622;2023-02-11T01:39:07;101883.88;;;1.98;55.42
68654;BME280;55636;51.108;13.622;2023-02-11T01:40:13;101887.44;;;1.99;55.33
68654;BME280;55636;51.108;13.622;2023-02-11T01:41:16;101895.50;;;2.00;55.27
68654;BME280;55636;51.108;13.622;2023-02-11T01:42:21;101887.31;;;2.00;55.30
68654;BME280;55636;51.108;13.622;2023-02-11T01:43:26;101882.69;;;2.01;55.29
68654;BME280;55636;51.108;13.622;2023-02-11T01:44:35;101893.25;;;2.04;55.43
68654;BME280;55636;51.108;13.622;2023-02-11T01:46:50;101880.34;;;2.06;55.34
68654;BME280;55636;51.108;13.622;2023-02-11T01:47:54;101881.34;;;2.05;55.43
68654;BME280;55636;51.108;13.622;2023-02-11T01:49:02;101882.88;;;2.07;55.29
68654;BME280;55636;51.108;13.622;2023-02-11T01:50:05;101877.25;;;2.09;55.39
68654;BME280;55636;51.108;13.622;2023-02-11T01:51:13;101871.81;;;2.09;55.44
68654;BME280;55636;51.108;13.622;2023-02-11T01:52:38;101869.78;;;2.11;55.42
68654;BME280;55636;51.108;13.622;2023-02-11T01:53:41;101872.34;;;2.13;55.32
68654;BME280;55636;51.108;13.622;2023-02-11T01:55:08;101862.25;;;2.13;55.38
68654;BME280;55636;51.108;13.622;2023-02-11T01:56:30;101857.50;;;2.15;55.25
68654;BME280;55636;51.108;13.622;2023-02-11T01:57:53;101855.63;;;2.16;55.38
68654;BME280;55636;51.108;13.622;2023-02-11T01:59:06;101859.22;;;2.16;55.34
68654;BME280;55636;51.108;13.622;2023-02-11T02:00:26;101862.63;;;2.18;55.42
68654;BME280;55636;51.108;13.622;2023-02-11T02:01:32;101851.72;;;2.18;55.28
68654;BME280;55636;51.108;13.622;2023-02-11T02:04:03;101846.13;;;2.20;55.38
68654;BME280;55636;51.108;13.622;2023-02-11T02:05:13;101845.25;;;2.19;55.48
68654;BME280;55636;51.108;13.622;2023-02-11T02:06:23;101854.97;;;2.22;55.41
68654;BME280;55636;51.108;13.622;2023-02-11T02:07:57;101847.66;;;2.22;55.48
68654;BME280;55636;51.108;13.622;2023-02-11T02:09:08;101853.78;;;2.24;55.41
68654;BME280;55636;51.108;13.622;2023-02-11T02:10:16;101847.47;;;2.24;55.42
68654;BME280;55636;51.108;13.622;2023-02-11T02:11:20;101848.31;;;2.24;55.45
68654;BME280;55636;51.108;13.622;2023-02-11T02:12:24;101843.72;;;2.25;55.57
68654;BME280;55636;51.108;13.622;2023-02-11T02:13:29;101846.28;;;2.26;55.42
68654;BME280;55636;51.108;13.622;2023-02-11T02:14:32;101848.00;;;2.27;55.47
68654;BME280;55636;51.108;13.622;2023-02-11T02:15:37;101845.94;;;2.30;55.51
68654;BME280;55636;51.108;13.622;2023-02-11T02:16:41;101851.41;;;2.30;55.43
68654;BME280;55636;51.108;13.622;2023-02-11T02:17:56;101855.66;;;2.32;55.38
68654;BME280;55636;51.108;13.622;2023-02-11T02:22:36;101858.56;;;2.39;55.21
68654;BME280;55636;51.108;13.622;2023-02-11T02:27:49;101859.06;;;2.42;55.26
68654;BME280;55636;51.108;13.622;2023-02-11T02:33:41;101840.16;;;2.49;55.31
68654;BME280;55636;51.108;13.622;2023-02-11T02:37:38;101827.88;;;2.53;55.32
68654;BME280;55636;51.108;13.622;2023-02-11T02:38:52;101826.84;;;2.54;55.34
68654;BME280;55636;51.108;13.622;2023-02-11T02:40:02;101825.66;;;2.57;55.30
68654;BME280;55636;51.108;13.622;2023-02-11T02:41:12;101818.47;;;2.56;55.19
68654;BME280;55636;51.108;13.622;2023-02-11T02:42:17;101822.94;;;2.57;55.35
68654;BME280;55636;51.108;13.622;2023-02-11T02:43:22;101815.56;;;2.57;55.32
68654;BME280;55636;51.108;13.622;2023-02-11T02:44:27;101820.88;;;2.59;55.33
68654;BME280;55636;51.108;13.622;2023-02-11T02:45:31;101822.44;;;2.62;55.17
68654;BME280;55636;51.108;13.622;2023-02-11T02:46:35;101817.63;;;2.64;55.12
68654;BME280;55636;51.108;13.622;2023-02-11T02:47:38;101819.53;;;2.63;55.18
68654;BME280;55636;51.108;13.622;2023-02-11T02:48:41;101819.34;;;2.65;55.14
68654;BME280;55636;51.108;13.622;2023-02-11T02:49:45;101819.84;;;2.68;55.16
68654;BME280;55636;51.108;13.622;2023-02-11T02:50:51;101820.69;;;2.69;55.04
68654;BME280;55636;51.108;13.622;2023-02-11T02:52:05;101816.78;;;2.71;54.95
68654;BME280;55636;51.108;13.622;2023-02-11T02:53:28;101806.53;;;2.73;55.09
68654;BME280;55636;51.108;13.622;2023-02-11T03:00:58;101805.72;;;2.81;54.86
68654;BME280;55636;51.108;13.622;2023-02-11T03:02:24;101810.81;;;2.84;54.71
68654;BME280;55636;51.108;13.622;2023-02-11T03:03:38;101820.72;;;2.85;54.77
68654;BME280;55636;51.108;13.622;2023-02-11T03:09:50;101826.31;;;2.92;54.62
68654;BME280;55636;51.108;13.622;2023-02-11T03:10:56;101831.97;;;2.90;54.58
68654;BME280;55636;51.108;13.622;2023-02-11T03:12:00;101820.88;;;2.92;54.47
68654;BME280;55636;51.108;13.622;2023-02-11T03:13:04;101830.59;;;2.95;54.53
68654;BME280;55636;51.108;13.622;2023-02-11T03:14:10;101825.97;;;2.95;54.46
68654;BME280;55636;51.108;13.622;2023-02-11T03:15:16;101836.75;;;2.97;54.54
68654;BME280;55636;51.108;13.622;2023-02-11T03:16:26;101840.50;;;2.96;54.42
68654;BME280;55636;51.108;13.622;2023-02-11T03:17:30;101840.31;;;2.97;54.39
68654;BME280;55636;51.108;13.622;2023-02-11T03:18:36;101843.88;;;2.98;54.23
68654;BME280;55636;51.108;13.622;2023-02-11T03:19:43;101839.09;;;3.00;54.39
68654;BME280;55636;51.108;13.622;2023-02-11T03:20:50;101845.22;;;3.02;54.29
68654;BME280;55636;51.108;13.622;2023-02-11T03:21:54;101837.22;;;3.00;54.30
68654;BME280;55636;51.108;13.622;2023-02-11T03:23:04;101837.03;;;3.02;54.30
68654;BME280;55636;51.108;13.622;2023-02-11T03:24:16;101822.19;;;3.04;54.26
68654;BME280;55636;51.108;13.622;2023-02-11T03:25:21;101822.03;;;3.06;54.28
68654;BME280;55636;51.108;13.622;2023-02-11T03:26:33;101801.88;;;3.07;54.17
68654;BME280;55636;51.108;13.622;2023-02-11T03:27:50;101794.53;;;3.07;54.23
68654;BME280;55636;51.108;13.622;2023-02-11T03:30:15;101780.72;;;3.09;54.09
68654;BME280;55636;51.108;13.622;2023-02-11T03:32:36;101780.53;;;3.11;54.19
68654;BME280;55636;51.108;13.622;2023-02-11T03:34:11;101776.59;;;3.13;54.18
68654;BME280;55636;51.108;13.622;2023-02-11T03:35:22;101783.94;;;3.13;54.28
68654;BME280;55636;51.108;13.622;2023-02-11T03:36:37;101784.78;;;3.13;54.26
68654;BME280;55636;51.108;13.622;2023-02-11T03:37:49;101790.25;;;3.13;54.34
68654;BME280;55636;51.108;13.622;2023-02-11T03:38:54;101785.66;;;3.14;54.14
68654;BME280;55636;51.108;13.622;2023-02-11T03:40:07;101780.00;;;3.15;54.16
68654;BME280;55636;51.108;13.622;2023-02-11T03:41:12;101781.88;;;3.15;54.19
68654;BME280;55636;51.108;13.622;2023-02-11T03:42:18;101777.28;;;3.15;54.08
68654;BME280;55636;51.108;13.622;2023-02-11T03:43:24;101767.19;;;3.16;54.12
68654;BME280;55636;51.108;13.622;2023-02-11T03:44:32;101774.19;;;3.18;54.08
68654;BME280;55636;51.108;13.622;2023-02-11T03:45:36;101772.47;;;3.17;54.05
68654;BME280;55636;51.108;13.622;2023-02-11T03:46:42;101762.44;;;3.18;54.16
68654;BME280;55636;51.108;13.622;2023-02-11T03:47:51;101773.16;;;3.19;54.04
68654;BME280;55636;51.108;13.622;2023-02-11T03:48:59;101771.47;;;3.18;54.12
68654;BME280;55636;51.108;13.622;2023-02-11T03:50:05;101755.75;;;3.20;54.21
68654;BME280;55636;51.108;13.622;2023-02-11T03:51:10;101762.94;;;3.21;54.10
68654;BME280;55636;51.108;13.622;2023-02-11T03:52:16;101756.59;;;3.21;53.99
68654;BME280;55636;51.108;13.622;2023-02-11T03:53:20;101762.94;;;3.21;54.11
68654;BME280;55636;51.108;13.622;2023-02-11T03:54:28;101775.53;;;3.22;53.91
68654;BME280;55636;51.108;13.622;2023-02-11T03:55:34;101776.41;;;3.23;54.03
68654;BME280;55636;51.108;13.622;2023-02-11T03:56:43;101772.63;;;3.24;53.97
68654;BME280;55636;51.108;13.622;2023-02-11T03:57:50;101770.75;;;3.24;54.08
68654;BME280;55636;51.108;13.622;2023-02-11T03:58:53;101767.00;;;3.25;53.91
68654;BME280;55636;51.108;13.622;2023-02-11T03:59:57;101765.94;;;3.26;53.87
68654;BME280;55636;51.108;13.622;2023-02-11T04:01:00;101770.56;;;3.26;53.95
68654;BME280;55636;51.108;13.622;2023-02-11T04:02:03;101765.94;;;3.26;53.95
68654;BME280;55636;51.108;13.622;2023-02-11T04:03:06;101765.94;;;3.26;53.90
68654;BME280;55636;51.108;13.622;2023-02-11T04:04:12;101759.47;;;3.28;53.98
68654;BME280;55636;51.108;13.622;2023-02-11T04:05:16;101760.16;;;3.30;54.10
68654;BME280;55636;51.108;13.622;2023-02-11T04:06:18;101761.19;;;3.29;53.79
68654;BME280;55636;51.108;13.622;2023-02-11T04:07:21;101753.81;;;3.29;53.91
68654;BME280;55636;51.108;13.622;2023-02-11T04:08:23;101753.81;;;3.29;53.91
68654;BME280;55636;51.108;13.622;2023-02-11T04:09:25;101758.25;;;3.30;53.71
68654;BME280;55636;51.108;13.622;2023-02-11T04:10:28;101764.59;;;3.31;53.94
68654;BME280;55636;51.108;13.622;2023-02-11T04:11:31;101763.53;;;3.32;53.76
68654;BME280;55636;51.108;13.622;2023-02-11T04:12:35;101760.81;;;3.32;53.77
68654;BME280;55636;51.108;13.622;2023-02-11T04:13:37;101757.06;;;3.33;53.77
68654;BME280;55636;51.108;13.622;2023-02-11T04:14:40;101757.91;;;3.33;53.83
68654;BME280;55636;51.108;13.622;2023-02-11T04:15:42;101763.19;;;3.35;53.75
68654;BME280;55636;51.108;13.622;2023-02-11T04:16:44;101750.38;;;3.35;53.80
68654;BME280;55636;51.108;13.622;2023-02-11T04:17:47;101755.00;;;3.35;53.83
68654;BME280;55636;51.108;13.622;2023-02-11T04:18:49;101761.31;;;3.35;53.64
68654;BME280;55636;51.108;13.622;2023-02-11T04:19:51;101763.84;;;3.37;53.72
68654;BME280;55636;51.108;13.622;2023-02-11T04:20:53;101768.31;;;3.38;53.94
68654;BME280;55636;51.108;13.622;2023-02-11T04:21:56;101768.13;;;3.39;53.80
68654;BME280;55636;51.108;13.622;2023-02-11T04:23:00;101768.31;;;3.38;53.83
68654;BME280;55636;51.108;13.622;2023-02-11T04:24:04;101771.91;;;3.38;53.85
68654;BME280;55636;51.108;13.622;2023-02-11T04:25:08;101764.53;;;3.39;53.77
68654;BME280;55636;51.108;13.622;2023-02-11T04:26:10;101771.72;;;3.40;53.85
68654;BME280;55636;51.108;13.622;2023-02-11T04:27:13;101760.78;;;3.40;53.77
68654;BME280;55636;51.108;13.622;2023-02-11T04:28:17;101757.88;;;3.41;53.83
68654;BME280;55636;51.108;13.622;2023-02-11T04:29:19;101766.91;;;3.42;53.84
68654;BME280;55636;51.108;13.622;2023-02-11T04:30:23;101765.88;;;3.43;53.72
68654;BME280;55636;51.108;13.622;2023-02-11T04:31:26;101761.44;;;3.42;53.78
68654;BME280;55636;51.108;13.622;2023-02-11T04:32:29;101764.19;;;3.42;53.81
68654;BME280;55636;51.108;13.622;2023-02-11T04:33:31;101766.91;;;3.42;53.68
68654;BME280;55636;51.108;13.622;2023-02-11T04:34:34;101765.03;;;3.42;53.80
68654;BME280;55636;51.108;13.622;2023-02-11T04:35:36;101765.03;;;3.42;53.77
68654;BME280;55636;51.108;13.622;2023-02-11T04:36:38;101773.06;;;3.44;53.95
68654;BME280;55636;51.108;13.622;2023-02-11T04:37:40;101767.59;;;3.44;53.87
68654;BME280;55636;51.108;13.622;2023-02-11T04:38:43;101775.59;;;3.46;53.89
68654;BME280;55636;51.108;13.622;2023-02-11T04:39:45;101776.44;;;3.46;53.91
68654;BME280;55636;51.108;13.622;2023-02-11T04:40:47;101767.41;;;3.46;53.87
68654;BME280;55636;51.108;13.622;2023-02-11T04:41:49;101782.59;;;3.48;53.90
68654;BME280;55636;51.108;13.622;2023-02-11T04:42:52;101780.88;;;3.47;53.97
68654;BME280;55636;51.108;13.622;2023-02-11T04:43:54;101782.59;;;3.48;53.98
68654;BME280;55636;51.108;13.622;2023-02-11T04:44:56;101782.59;;;3.48;54.13
68654;BME280;55636;51.108;13.622;2023-02-11T04:45:59;101784.31;;;3.49;54.00
68654;BME280;55636;51.108;13.622;2023-02-11T04:47:02;101784.31;;;3.49;54.06
68654;BME280;55636;51.108;13.622;2023-02-11T04:48:04;101777.13;;;3.48;54.19
68654;BME280;55636;51.108;13.622;2023-02-11T04:49:07;101787.88;;;3.50;54.10
68654;BME280;55636;51.108;13.622;2023-02-11T04:50:09;101780.53;;;3.50;54.15
68654;BME280;55636;51.108;13.622;2023-02-11T04:51:11;101784.13;;;3.51;54.19
68654;BME280;55636;51.108;13.622;2023-02-11T04:52:14;101784.97;;;3.51;54.13
68654;BME280;55636;51.108;13.622;2023-02-11T04:53:16;101778.47;;;3.52;54.20
68654;BME280;55636;51.108;13.622;2023-02-11T04:54:18;101784.81;;;3.53;54.12
68654;BME280;55636;51.108;13.622;2023-02-11T04:55:21;101783.75;;;3.54;54.19
68654;BME280;55636;51.108;13.622;2023-02-11T04:56:23;101773.00;;;3.52;54.27
68654;BME280;55636;51.108;13.622;2023-02-11T04:57:25;101775.56;;;3.54;54.31
68654;BME280;55636;51.108;13.622;2023-02-11T04:58:28;101775.56;;;3.54;54.29
68654;BME280;55636;51.108;13.622;2023-02-11T04:59:32;101778.28;;;3.54;54.32
68654;BME280;55636;51.108;13.622;2023-02-11T05:00:34;101769.25;;;3.53;54.34
68654;BME280;55636;51.108;13.622;2023-02-11T05:01:36;101782.91;;;3.53;54.37
68654;BME280;55636;51.108;13.622;2023-02-11T05:02:40;101780.19;;;3.53;54.52
68654;BME280;55636;51.108;13.622;2023-02-11T05:03:42;101774.53;;;3.55;54.50
68654;BME280;55636;51.108;13.622;2023-02-11T05:04:45;101774.53;;;3.55;54.64
68654;BME280;55636;51.108;13.622;2023-02-11T05:05:47;101778.97;;;3.56;54.68
68654;BME280;55636;51.108;13.622;2023-02-11T05:06:50;101786.31;;;3.55;54.68
68654;BME280;55636;51.108;13.622;2023-02-11T05:07:53;101780.69;;;3.57;54.65
68654;BME280;55636;51.108;13.622;2023-02-11T05:08:55;101783.59;;;3.55;54.88
68654;BME280;55636;51.108;13.622;2023-02-11T05:09:59;101783.22;;;3.58;54.79
68654;BME280;55636;51.108;13.622;2023-02-11T05:11:01;101774.19;;;3.58;54.99
68654;BME280;55636;51.108;13.622;2023-02-11T05:12:03;101787.66;;;3.59;54.94
68654;BME280;55636;51.108;13.622;2023-02-11T05:13:06;101786.81;;;3.59;54.90
68654;BME280;55636;51.108;13.622;2023-02-11T05:14:08;101783.03;;;3.60;54.84
68654;BME280;55636;51.108;13.622;2023-02-11T05:15:10;101782.19;;;3.59;55.02
68654;BME280;55636;51.108;13.622;2023-02-11T05:16:13;101786.47;;;3.62;54.85
68654;BME280;55636;51.108;13.622;2023-02-11T05:17:16;101779.09;;;3.63;54.93
68654;BME280;55636;51.108;13.622;2023-02-11T05:18:18;101781.19;;;3.61;55.05
68654;BME280;55636;51.108;13.622;2023-02-11T05:19:20;101788.31;;;3.62;55.14
68654;BME280;55636;51.108;13.622;2023-02-11T05:20:23;101784.56;;;3.63;55.13
68654;BME280;55636;51.108;13.622;2023-02-11T05:21:25;101787.47;;;3.61;55.00
68654;BME280;55636;51.108;13.622;2023-02-11T05:22:28;101776.38;;;3.63;55.02
68654;BME280;55636;51.108;13.622;2023-02-11T05:23:30;101776.38;;;3.63;55.01
68654;BME280;55636;51.108;13.622;2023-02-11T05:24:33;101771.78;;;3.63;55.19
68654;BME280;55636;51.108;13.622;2023-02-11T05:25:36;101776.38;;;3.63;55.21
68654;BME280;55636;51.108;13.622;2023-02-11T05:26:38;101767.13;;;3.64;55.18
68654;BME280;55636;51.108;13.622;2023-02-11T05:27:40;101766.13;;;3.65;55.19
68654;BME280;55636;51.108;13.622;2023-02-11T05:28:43;101767.81;;;3.66;55.14
68654;BME280;55636;51.108;13.622;2023-02-11T05:29:45;101767.97;;;3.64;55.27
68654;BME280;55636;51.108;13.622;2023-02-11T05:30:48;101772.41;;;3.65;55.38
68654;BME280;55636;51.108;13.622;2023-02-11T05:31:50;101772.41;;;3.65;55.31
68654;BME280;55636;51.108;13.622;2023-02-11T05:32:53;101776.03;;;3.66;55.31
68654;BME280;55636;51.108;13.622;2023-02-11T05:33:55;101762.34;;;3.66;55.31
68654;BME280;55636;51.108;13.622;2023-02-11T05:34:58;101768.84;;;3.65;55.37
68654;BME280;55636;51.108;13.622;2023-02-11T05:36:07;101768.84;;;3.65;55.41
68654;BME280;55636;51.108;13.622;2023-02-11T05:37:09;101772.41;;;3.65;55.37
68654;BME280;55636;51.108;13.622;2023-02-11T05:38:11;101769.50;;;3.67;55.36
68654;BME280;55636;51.108;13.622;2023-02-11T05:39:14;101766.78;;;3.67;55.40
68654;BME280;55636;51.108;13.622;2023-02-11T05:40:16;101769.50;;;3.67;55.44
68654;BME280;55636;51.108;13.622;2023-02-11T05:41:18;101767.44;;;3.69;55.42
68654;BME280;55636;51.108;13.622;2023-02-11T05:42:20;101763.88;;;3.68;55.59
68654;BME280;55636;51.108;13.622;2023-02-11T05:43:25;101761.97;;;3.69;55.65
68654;BME280;55636;51.108;13.622;2023-02-11T05:44:27;101759.44;;;3.67;55.66
68654;BME280;55636;51.108;13.622;2023-02-11T05:45:29;101759.25;;;3.69;55.73
68654;BME280;55636;51.108;13.622;2023-02-11T05:46:32;101759.25;;;3.69;55.71
68654;BME280;55636;51.108;13.622;2023-02-11T05:47:34;101760.97;;;3.70;55.73
68654;BME280;55636;51.108;13.622;2023-02-11T05:48:36;101756.34;;;3.70;55.78
68654;BME280;55636;51.108;13.622;2023-02-11T05:49:39;101756.16;;;3.72;55.75
68654;BME280;55636;51.108;13.622;2023-02-11T05:50:41;101758.88;;;3.72;55.75
68654;BME280;55636;51.108;13.622;2023-02-11T05:51:45;101764.53;;;3.70;55.77
68654;BME280;55636;51.108;13.622;2023-02-11T05:52:48;101761.63;;;3.72;55.93
68654;BME280;55636;51.108;13.622;2023-02-11T05:53:50;101765.22;;;3.72;55.96
68654;BME280;55636;51.108;13.622;2023-02-11T05:54:52;101764.34;;;3.72;55.88
68654;BME280;55636;51.108;13.622;2023-02-11T05:55:55;101769.81;;;3.72;55.98
68654;BME280;55636;51.108;13.622;2023-02-11T05:56:57;101758.88;;;3.72;55.83
68654;BME280;55636;51.108;13.622;2023-02-11T05:57:59;101762.28;;;3.74;55.74
68654;BME280;55636;51.108;13.622;2023-02-11T05:59:01;101755.97;;;3.73;55.91
68654;BME280;55636;51.108;13.622;2023-02-11T06:00:04;101773.22;;;3.74;55.86
68654;BME280;55636;51.108;13.622;2023-02-11T06:01:13;101754.28;;;3.72;56.00
68654;BME280;55636;51.108;13.622;2023-02-11T06:02:16;101758.88;;;3.72;55.93
68654;BME280;55636;51.108;13.622;2023-02-11T06:03:19;101760.59;;;3.73;56.02
68654;BME280;55636;51.108;13.622;2023-02-11T06:04:22;101756.81;;;3.74;56.07
68654;BME280;55636;51.108;13.622;2023-02-11T06:05:24;101756.81;;;3.74;55.93
68654;BME280;55636;51.108;13.622;2023-02-11T06:06:27;101764.16;;;3.73;56.00
68654;BME280;55636;51.108;13.622;2023-02-11T06:07:29;101753.22;;;3.73;56.04
68654;BME280;55636;51.108;13.622;2023-02-11T06:08:31;101754.09;;;3.74;55.97
68654;BME280;55636;51.108;13.622;2023-02-11T06:09:35;101758.53;;;3.75;56.06
68654;BME280;55636;51.108;13.622;2023-02-11T06:10:38;101749.47;;;3.74;56.14